createdAt,value
2017-12-05T00:00:21.624Z,1020.53
2017-12-05T00:01:02.195Z,1020.5
2017-12-05T00:01:42.758Z,1020.52
2017-12-05T00:02:23.329Z,1020.52
2017-12-05T00:03:03.895Z,1020.54
2017-12-05T00:03:44.474Z,1020.61
2017-12-05T00:04:25.024Z,1020.5
2017-12-05T00:05:05.587Z,1020.55
2017-12-05T00:05:46.152Z,1020.51
2017-12-05T00:06:26.729Z,1020.44
2017-12-05T00:07:07.290Z,1020.43
2017-12-05T00:07:47.854Z,1020.5
2017-12-05T00:08:28.421Z,1020.47
2017-12-05T00:09:09.038Z,1020.47
2017-12-05T00:09:49.602Z,1020.45
2017-12-05T00:10:30.173Z,1020.43
2017-12-05T00:11:10.788Z,1020.41
2017-12-05T00:11:51.354Z,1020.39
2017-12-05T00:12:31.913Z,1020.36
2017-12-05T00:13:12.487Z,1020.29
2017-12-05T00:13:53.048Z,1020.31
2017-12-05T00:14:33.644Z,1020.31
2017-12-05T00:15:14.247Z,1020.3
2017-12-05T00:15:54.808Z,1020.32
2017-12-05T00:16:35.384Z,1020.28
2017-12-05T00:17:15.967Z,1020.29
2017-12-05T00:17:56.542Z,1020.27
2017-12-05T00:18:37.095Z,1020.28
2017-12-05T00:19:17.662Z,1020.31
2017-12-05T00:19:58.234Z,1020.28
2017-12-05T00:20:38.801Z,1020.27
2017-12-05T00:21:19.372Z,1020.27
2017-12-05T00:21:59.946Z,1020.25
2017-12-05T00:22:40.508Z,1020.25
2017-12-05T00:23:21.087Z,1020.22
2017-12-05T00:24:01.653Z,1020.24
2017-12-05T00:24:42.242Z,1020.26
2017-12-05T00:25:22.808Z,1020.21
2017-12-05T00:26:03.373Z,1020.25
2017-12-05T00:26:43.937Z,1020.23
2017-12-05T00:27:24.532Z,1020.23
2017-12-05T00:28:05.109Z,1020.19
2017-12-05T00:28:45.678Z,1020.19
2017-12-05T00:29:26.249Z,1020.22
2017-12-05T00:30:06.833Z,1020.26
2017-12-05T00:30:47.394Z,1020.23
2017-12-05T00:31:27.950Z,1020.21
2017-12-05T00:32:08.514Z,1020.24
2017-12-05T00:32:49.083Z,1020.17
2017-12-05T00:33:29.643Z,1020.21
2017-12-05T00:34:10.207Z,1020.23
2017-12-05T00:34:50.779Z,1020.26
2017-12-05T00:35:31.344Z,1020.22
2017-12-05T00:36:11.899Z,1020.21
2017-12-05T00:36:52.457Z,1020.2
2017-12-05T00:37:33.031Z,1020.21
2017-12-05T00:38:13.594Z,1020.2
2017-12-05T00:38:54.150Z,1020.2
2017-12-05T00:39:34.735Z,1020.23
2017-12-05T00:40:15.277Z,1020.22
2017-12-05T00:40:55.845Z,1020.22
2017-12-05T00:41:36.400Z,1020.22
2017-12-05T00:42:16.977Z,1020.22
2017-12-05T00:42:57.568Z,1020.22
2017-12-05T00:43:38.145Z,1020.21
2017-12-05T00:44:18.716Z,1020.24
2017-12-05T00:44:59.303Z,1020.22
2017-12-05T00:45:39.845Z,1020.26
2017-12-05T00:46:20.416Z,1020.28
2017-12-05T00:47:00.981Z,1020.26
2017-12-05T00:47:41.541Z,1020.22
2017-12-05T00:48:22.108Z,1020.22
2017-12-05T00:49:02.674Z,1020.24
2017-12-05T00:49:43.237Z,1020.24
2017-12-05T00:50:23.810Z,1020.21
2017-12-05T00:51:04.369Z,1020.22
2017-12-05T00:51:44.947Z,1020.24
2017-12-05T00:52:25.498Z,1020.27
2017-12-05T00:53:06.066Z,1020.24
2017-12-05T00:53:46.646Z,1020.25
2017-12-05T00:54:27.225Z,1020.27
2017-12-05T00:55:07.815Z,1020.21
2017-12-05T00:55:48.400Z,1020.23
2017-12-05T00:56:28.978Z,1020.23
2017-12-05T00:57:09.559Z,1020.21
2017-12-05T00:57:50.135Z,1020.23
2017-12-05T00:58:30.735Z,1020.16
2017-12-05T00:59:11.326Z,1020.22
2017-12-05T00:59:51.901Z,1020.17
2017-12-05T01:00:32.472Z,1020.18
2017-12-05T01:01:13.047Z,1020.17
2017-12-05T01:01:53.638Z,1020.11
2017-12-05T01:02:34.219Z,1020.15
2017-12-05T01:03:14.787Z,1020.09
2017-12-05T01:03:55.381Z,1020.14
2017-12-05T01:04:35.963Z,1020.15
2017-12-05T01:05:16.515Z,1020.17
2017-12-05T01:05:57.067Z,1020.12
2017-12-05T01:06:37.635Z,1020.14
2017-12-05T01:07:18.188Z,1020.18
2017-12-05T01:07:58.747Z,1020.16
2017-12-05T01:08:39.410Z,1020.18
2017-12-05T01:09:19.966Z,1020.15
2017-12-05T01:10:00.537Z,1020.17
2017-12-05T01:10:41.097Z,1020.25
2017-12-05T01:11:21.677Z,1020.2
2017-12-05T01:12:02.271Z,1020.22
2017-12-05T01:12:42.832Z,1020.24
2017-12-05T01:13:23.390Z,1020.2
2017-12-05T01:14:03.958Z,1020.16
2017-12-05T01:14:44.544Z,1020.17
2017-12-05T01:15:25.121Z,1020.1
2017-12-05T01:16:05.666Z,1020.22
2017-12-05T01:16:46.244Z,1020.14
2017-12-05T01:17:26.827Z,1020.16
2017-12-05T01:18:07.429Z,1020.17
2017-12-05T01:18:48.043Z,1020.13
2017-12-05T01:19:28.630Z,1020.17
2017-12-05T01:20:15.733Z,1020.17
2017-12-05T01:20:56.306Z,1020.17
2017-12-05T01:21:36.876Z,1020.17
2017-12-05T01:22:17.442Z,1020.2
2017-12-05T01:22:58.007Z,1020.16
2017-12-05T01:23:38.580Z,1020.19
2017-12-05T01:24:19.144Z,1020.18
2017-12-05T01:24:59.698Z,1020.2
2017-12-05T01:25:40.286Z,1020.13
2017-12-05T01:26:20.863Z,1020.12
2017-12-05T01:27:01.414Z,1020.17
2017-12-05T01:27:41.983Z,1020.15
2017-12-05T01:28:22.544Z,1020.17
2017-12-05T01:29:03.107Z,1020.18
2017-12-05T01:29:44.238Z,1020.17
2017-12-05T01:30:24.791Z,1020.13
2017-12-05T01:31:05.348Z,1020.21
2017-12-05T01:31:45.911Z,1020.17
2017-12-05T01:32:26.476Z,1020.15
2017-12-05T01:33:07.042Z,1020.1
2017-12-05T01:33:47.641Z,1020.14
2017-12-05T01:34:28.215Z,1020.15
2017-12-05T01:35:08.821Z,1020.16
2017-12-05T01:35:49.357Z,1020.14
2017-12-05T01:36:29.951Z,1020.12
2017-12-05T01:37:10.515Z,1020.16
2017-12-05T01:37:51.081Z,1020.17
2017-12-05T01:38:31.641Z,1020.2
2017-12-05T01:39:12.207Z,1020.19
2017-12-05T01:39:52.781Z,1020.15
2017-12-05T01:40:33.341Z,1020.16
2017-12-05T01:41:13.933Z,1020.17
2017-12-05T01:41:54.510Z,1020.16
2017-12-05T01:42:35.084Z,1020.15
2017-12-05T01:43:15.652Z,1020.14
2017-12-05T01:43:56.204Z,1020.18
2017-12-05T01:44:36.805Z,1020.18
2017-12-05T01:45:17.382Z,1020.18
2017-12-05T01:45:57.946Z,1020.17
2017-12-05T01:46:38.513Z,1020.17
2017-12-05T01:47:19.114Z,1020.23
2017-12-05T01:47:59.694Z,1020.17
2017-12-05T01:48:40.270Z,1020.16
2017-12-05T01:49:20.851Z,1020.22
2017-12-05T01:50:01.414Z,1020.15
2017-12-05T01:50:41.992Z,1020.15
2017-12-05T01:51:22.569Z,1020.18
2017-12-05T01:52:03.155Z,1020.17
2017-12-05T01:52:43.718Z,1020.17
2017-12-05T01:53:24.299Z,1020.16
2017-12-05T01:54:04.877Z,1020.17
2017-12-05T01:54:45.450Z,1020.18
2017-12-05T01:55:26.025Z,1020.18
2017-12-05T01:56:06.619Z,1020.23
2017-12-05T01:56:47.198Z,1020.21
2017-12-05T01:57:27.785Z,1020.23
2017-12-05T01:58:08.372Z,1020.21
2017-12-05T01:58:48.955Z,1020.2
2017-12-05T01:59:29.564Z,1020.22
2017-12-05T02:00:10.127Z,1020.23
2017-12-05T02:00:50.700Z,1020.14
2017-12-05T02:01:31.258Z,1020.2
2017-12-05T02:02:11.825Z,1020.23
2017-12-05T02:02:52.418Z,1020.13
2017-12-05T02:03:32.972Z,1020.14
2017-12-05T02:04:13.536Z,1020.17
2017-12-05T02:04:54.102Z,1020.16
2017-12-05T02:05:34.671Z,1020.14
2017-12-05T02:06:15.231Z,1020.13
2017-12-05T02:06:55.794Z,1020.15
2017-12-05T02:07:36.370Z,1020.16
2017-12-05T02:08:16.947Z,1020.16
2017-12-05T02:08:57.543Z,1020.17
2017-12-05T02:09:38.110Z,1020.19
2017-12-05T02:10:18.683Z,1020.14
2017-12-05T02:10:59.245Z,1020.19
2017-12-05T02:11:39.807Z,1020.17
2017-12-05T02:12:20.373Z,1020.15
2017-12-05T02:13:00.947Z,1020.12
2017-12-05T02:13:41.499Z,1020.11
2017-12-05T02:14:22.082Z,1020.1
2017-12-05T02:15:02.655Z,1020.11
2017-12-05T02:15:43.218Z,1020.07
2017-12-05T02:16:23.785Z,1020.04
2017-12-05T02:17:04.353Z,1020.02
2017-12-05T02:17:44.942Z,1019.98
2017-12-05T02:18:25.503Z,1019.99
2017-12-05T02:19:06.099Z,1019.97
2017-12-05T02:19:46.699Z,1019.96
2017-12-05T02:20:27.307Z,1019.95
2017-12-05T02:21:07.862Z,1019.97
2017-12-05T02:21:48.443Z,1019.94
2017-12-05T02:22:28.999Z,1019.89
2017-12-05T02:23:09.559Z,1019.91
2017-12-05T02:23:50.131Z,1019.96
2017-12-05T02:24:30.695Z,1019.93
2017-12-05T02:25:11.268Z,1019.93
2017-12-05T02:25:51.866Z,1019.9
2017-12-05T02:26:32.427Z,1019.96
2017-12-05T02:27:12.994Z,1019.96
2017-12-05T02:27:53.549Z,1019.98
2017-12-05T02:28:34.114Z,1019.94
2017-12-05T02:29:14.677Z,1019.96
2017-12-05T02:29:55.235Z,1019.91
2017-12-05T02:30:35.811Z,1019.91
2017-12-05T02:31:16.384Z,1019.94
2017-12-05T02:31:56.944Z,1019.9
2017-12-05T02:32:37.529Z,1019.91
2017-12-05T02:33:18.114Z,1019.85
2017-12-05T02:33:58.670Z,1019.87
2017-12-05T02:34:39.248Z,1019.85
2017-12-05T02:35:19.828Z,1019.84
2017-12-05T02:36:00.378Z,1019.88
2017-12-05T02:36:40.942Z,1019.87
2017-12-05T02:37:21.521Z,1019.85
2017-12-05T02:38:02.101Z,1019.87
2017-12-05T02:38:42.676Z,1019.85
2017-12-05T02:39:23.247Z,1019.81
2017-12-05T02:40:03.829Z,1019.82
2017-12-05T02:40:44.397Z,1019.83
2017-12-05T02:41:24.995Z,1019.82
2017-12-05T02:42:05.557Z,1019.72
2017-12-05T02:42:46.134Z,1019.73
2017-12-05T02:43:26.692Z,1019.72
2017-12-05T02:44:07.269Z,1019.73
2017-12-05T02:44:47.839Z,1019.75
2017-12-05T02:45:28.406Z,1019.73
2017-12-05T02:46:08.966Z,1019.65
2017-12-05T02:46:49.533Z,1019.71
2017-12-05T02:47:30.090Z,1019.68
2017-12-05T02:48:10.652Z,1019.62
2017-12-05T02:48:51.228Z,1019.67
2017-12-05T02:49:31.796Z,1019.66
2017-12-05T02:50:12.362Z,1019.63
2017-12-05T02:50:52.933Z,1019.65
2017-12-05T02:51:33.523Z,1019.71
2017-12-05T02:52:14.097Z,1019.66
2017-12-05T02:52:54.662Z,1019.67
2017-12-05T02:53:35.211Z,1019.72
2017-12-05T02:54:15.777Z,1019.66
2017-12-05T02:54:56.345Z,1019.69
2017-12-05T02:55:36.908Z,1019.68
2017-12-05T02:56:17.463Z,1019.68
2017-12-05T02:56:58.041Z,1019.65
2017-12-05T02:57:38.611Z,1019.64
2017-12-05T02:58:20.131Z,1019.68
2017-12-05T02:59:02.192Z,1019.63
2017-12-05T02:59:43.478Z,1019.64
2017-12-05T03:00:24.272Z,1019.61
2017-12-05T03:01:04.845Z,1019.65
2017-12-05T03:01:45.419Z,1019.62
2017-12-05T03:02:25.985Z,1019.63
2017-12-05T03:03:06.567Z,1019.62
2017-12-05T03:03:47.149Z,1019.65
2017-12-05T03:04:27.727Z,1019.64
2017-12-05T03:05:08.289Z,1019.64
2017-12-05T03:05:48.849Z,1019.65
2017-12-05T03:06:29.556Z,1019.6
2017-12-05T03:07:10.124Z,1019.63
2017-12-05T03:07:50.705Z,1019.65
2017-12-05T03:08:31.272Z,1019.64
2017-12-05T03:09:11.828Z,1019.64
2017-12-05T03:09:52.393Z,1019.61
2017-12-05T03:10:32.960Z,1019.64
2017-12-05T03:11:13.517Z,1019.6
2017-12-05T03:11:54.070Z,1019.65
2017-12-05T03:12:34.649Z,1019.55
2017-12-05T03:13:15.249Z,1019.6
2017-12-05T03:13:55.810Z,1019.6
2017-12-05T03:14:36.376Z,1019.58
2017-12-05T03:15:16.955Z,1019.62
2017-12-05T03:15:57.522Z,1019.58
2017-12-05T03:16:38.093Z,1019.56
2017-12-05T03:17:18.689Z,1019.56
2017-12-05T03:17:59.268Z,1019.54
2017-12-05T03:18:39.834Z,1019.58
2017-12-05T03:19:20.394Z,1019.58
2017-12-05T03:20:00.972Z,1019.59
2017-12-05T03:20:41.538Z,1019.6
2017-12-05T03:21:22.125Z,1019.61
2017-12-05T03:22:02.753Z,1019.62
2017-12-05T03:22:43.328Z,1019.59
2017-12-05T03:23:23.894Z,1019.59
2017-12-05T03:24:04.445Z,1019.58
2017-12-05T03:24:45.019Z,1019.58
2017-12-05T03:25:25.590Z,1019.59
2017-12-05T03:26:06.204Z,1019.6
2017-12-05T03:26:46.808Z,1019.59
2017-12-05T03:27:27.415Z,1019.6
2017-12-05T03:28:07.989Z,1019.62
2017-12-05T03:28:48.552Z,1019.62
2017-12-05T03:29:29.122Z,1019.59
2017-12-05T03:30:09.692Z,1019.58
2017-12-05T03:30:50.263Z,1019.61
2017-12-05T03:31:30.844Z,1019.59
2017-12-05T03:32:11.424Z,1019.59
2017-12-05T03:32:51.998Z,1019.64
2017-12-05T03:33:32.578Z,1019.6
2017-12-05T03:34:13.153Z,1019.63
2017-12-05T03:34:53.751Z,1019.62
2017-12-05T03:35:34.352Z,1019.63
2017-12-05T03:36:14.903Z,1019.59
2017-12-05T03:36:55.463Z,1019.59
2017-12-05T03:37:36.026Z,1019.64
2017-12-05T03:38:16.595Z,1019.59
2017-12-05T03:38:57.159Z,1019.58
2017-12-05T03:39:37.733Z,1019.59
2017-12-05T03:40:18.346Z,1019.61
2017-12-05T03:40:58.926Z,1019.58
2017-12-05T03:41:39.497Z,1019.59
2017-12-05T03:42:20.059Z,1019.58
2017-12-05T03:43:00.623Z,1019.57
2017-12-05T03:43:41.201Z,1019.55
2017-12-05T03:44:21.780Z,1019.54
2017-12-05T03:45:02.342Z,1019.53
2017-12-05T03:45:42.931Z,1019.54
2017-12-05T03:46:23.527Z,1019.51
2017-12-05T03:47:04.087Z,1019.56
2017-12-05T03:47:44.665Z,1019.57
2017-12-05T03:48:25.233Z,1019.51
2017-12-05T03:49:05.775Z,1019.55
2017-12-05T03:49:46.329Z,1019.48
2017-12-05T03:50:26.930Z,1019.5
2017-12-05T03:51:07.497Z,1019.48
2017-12-05T03:51:48.074Z,1019.53
2017-12-05T03:52:28.630Z,1019.51
2017-12-05T03:53:09.235Z,1019.51
2017-12-05T03:53:50.155Z,1019.51
2017-12-05T03:54:30.713Z,1019.48
2017-12-05T03:55:11.293Z,1019.5
2017-12-05T03:55:51.854Z,1019.5
2017-12-05T03:56:32.436Z,1019.53
2017-12-05T03:57:13.000Z,1019.51
2017-12-05T03:57:53.567Z,1019.54
2017-12-05T03:58:34.133Z,1019.52
2017-12-05T03:59:14.697Z,1019.53
2017-12-05T03:59:55.269Z,1019.51
2017-12-05T04:00:35.831Z,1019.51
2017-12-05T04:01:16.407Z,1019.51
2017-12-05T04:01:56.967Z,1019.47
2017-12-05T04:02:37.564Z,1019.52
2017-12-05T04:03:18.141Z,1019.5
2017-12-05T04:03:58.707Z,1019.5
2017-12-05T04:04:39.272Z,1019.46
2017-12-05T04:05:19.870Z,1019.45
2017-12-05T04:06:00.458Z,1019.49
2017-12-05T04:06:41.020Z,1019.45
2017-12-05T04:07:21.577Z,1019.48
2017-12-05T04:08:02.138Z,1019.48
2017-12-05T04:08:42.707Z,1019.49
2017-12-05T04:09:23.278Z,1019.47
2017-12-05T04:10:03.847Z,1019.47
2017-12-05T04:10:44.404Z,1019.46
2017-12-05T04:11:24.972Z,1019.47
2017-12-05T04:12:05.526Z,1019.46
2017-12-05T04:12:46.107Z,1019.47
2017-12-05T04:13:26.663Z,1019.45
2017-12-05T04:14:07.233Z,1019.44
2017-12-05T04:14:47.815Z,1019.49
2017-12-05T04:15:28.373Z,1019.49
2017-12-05T04:16:08.932Z,1019.48
2017-12-05T04:16:49.520Z,1019.48
2017-12-05T04:17:30.077Z,1019.45
2017-12-05T04:18:10.636Z,1019.45
2017-12-05T04:18:51.192Z,1019.47
2017-12-05T04:19:31.772Z,1019.45
2017-12-05T04:20:12.349Z,1019.44
2017-12-05T04:20:52.914Z,1019.43
2017-12-05T04:21:33.486Z,1019.41
2017-12-05T04:22:14.047Z,1019.47
2017-12-05T04:22:54.625Z,1019.41
2017-12-05T04:23:35.199Z,1019.41
2017-12-05T04:24:15.772Z,1019.41
2017-12-05T04:24:56.335Z,1019.46
2017-12-05T04:25:36.904Z,1019.48
2017-12-05T04:26:17.477Z,1019.39
2017-12-05T04:26:58.038Z,1019.41
2017-12-05T04:27:38.638Z,1019.44
2017-12-05T04:28:19.203Z,1019.43
2017-12-05T04:28:59.770Z,1019.39
2017-12-05T04:29:40.349Z,1019.4
2017-12-05T04:30:20.983Z,1019.38
2017-12-05T04:31:01.542Z,1019.38
2017-12-05T04:31:42.108Z,1019.43
2017-12-05T04:32:22.665Z,1019.37
2017-12-05T04:33:03.234Z,1019.4
2017-12-05T04:33:43.797Z,1019.38
2017-12-05T04:34:24.353Z,1019.4
2017-12-05T04:35:04.926Z,1019.33
2017-12-05T04:35:45.503Z,1019.38
2017-12-05T04:36:26.073Z,1019.4
2017-12-05T04:37:06.660Z,1019.35
2017-12-05T04:37:47.228Z,1019.41
2017-12-05T04:38:27.809Z,1019.33
2017-12-05T04:39:08.384Z,1019.38
2017-12-05T04:39:48.951Z,1019.33
2017-12-05T04:40:29.524Z,1019.37
2017-12-05T04:41:10.119Z,1019.36
2017-12-05T04:41:50.688Z,1019.34
2017-12-05T04:42:31.264Z,1019.32
2017-12-05T04:43:11.862Z,1019.32
2017-12-05T04:43:52.421Z,1019.32
2017-12-05T04:44:33.000Z,1019.32
2017-12-05T04:45:13.561Z,1019.32
2017-12-05T04:45:54.131Z,1019.34
2017-12-05T04:46:34.710Z,1019.31
2017-12-05T04:47:15.282Z,1019.33
2017-12-05T04:47:55.830Z,1019.33
2017-12-05T04:48:36.408Z,1019.32
2017-12-05T04:49:16.991Z,1019.3
2017-12-05T04:49:57.553Z,1019.3
2017-12-05T04:50:38.128Z,1019.3
2017-12-05T04:51:18.727Z,1019.28
2017-12-05T04:51:59.280Z,1019.29
2017-12-05T04:52:39.840Z,1019.31
2017-12-05T04:53:20.424Z,1019.28
2017-12-05T04:54:01.040Z,1019.3
2017-12-05T04:54:41.601Z,1019.23
2017-12-05T04:55:22.188Z,1019.27
2017-12-05T04:56:02.755Z,1019.26
2017-12-05T04:56:43.307Z,1019.23
2017-12-05T04:57:23.907Z,1019.26
2017-12-05T04:58:04.486Z,1019.25
2017-12-05T04:58:45.054Z,1019.28
2017-12-05T04:59:25.637Z,1019.28
2017-12-05T05:00:06.193Z,1019.26
2017-12-05T05:00:46.760Z,1019.26
2017-12-05T05:01:27.360Z,1019.28
2017-12-05T05:02:07.961Z,1019.28
2017-12-05T05:02:48.549Z,1019.22
2017-12-05T05:03:29.119Z,1019.23
2017-12-05T05:04:09.683Z,1019.26
2017-12-05T05:04:50.265Z,1019.29
2017-12-05T05:05:30.842Z,1019.27
2017-12-05T05:06:11.484Z,1019.25
2017-12-05T05:06:51.998Z,1019.27
2017-12-05T05:07:32.563Z,1019.27
2017-12-05T05:08:13.134Z,1019.28
2017-12-05T05:08:53.710Z,1019.27
2017-12-05T05:09:34.270Z,1019.25
2017-12-05T05:10:14.828Z,1019.27
2017-12-05T05:10:55.400Z,1019.28
2017-12-05T05:11:35.969Z,1019.27
2017-12-05T05:12:16.556Z,1019.29
2017-12-05T05:12:57.128Z,1019.28
2017-12-05T05:13:37.683Z,1019.29
2017-12-05T05:14:18.271Z,1019.32
2017-12-05T05:14:58.842Z,1019.28
2017-12-05T05:15:39.405Z,1019.33
2017-12-05T05:16:19.965Z,1019.3
2017-12-05T05:17:00.528Z,1019.29
2017-12-05T05:17:41.103Z,1019.31
2017-12-05T05:18:21.669Z,1019.31
2017-12-05T05:19:02.228Z,1019.3
2017-12-05T05:19:42.802Z,1019.32
2017-12-05T05:20:23.355Z,1019.32
2017-12-05T05:21:03.926Z,1019.33
2017-12-05T05:21:44.481Z,1019.29
2017-12-05T05:22:25.050Z,1019.38
2017-12-05T05:23:05.620Z,1019.33
2017-12-05T05:23:46.182Z,1019.32
2017-12-05T05:24:26.744Z,1019.33
2017-12-05T05:25:07.316Z,1019.33
2017-12-05T05:25:47.887Z,1019.33
2017-12-05T05:26:28.462Z,1019.35
2017-12-05T05:27:09.031Z,1019.41
2017-12-05T05:27:49.599Z,1019.37
2017-12-05T05:28:30.199Z,1019.35
2017-12-05T05:29:10.832Z,1019.34
2017-12-05T05:29:51.401Z,1019.37
2017-12-05T05:30:31.971Z,1019.34
2017-12-05T05:31:12.537Z,1019.38
2017-12-05T05:31:53.116Z,1019.39
2017-12-05T05:32:33.680Z,1019.35
2017-12-05T05:33:14.259Z,1019.35
2017-12-05T05:33:54.825Z,1019.35
2017-12-05T05:34:35.393Z,1019.4
2017-12-05T05:35:15.959Z,1019.38
2017-12-05T05:35:56.516Z,1019.39
2017-12-05T05:36:37.129Z,1019.42
2017-12-05T05:37:17.662Z,1019.42
2017-12-05T05:37:58.238Z,1019.39
2017-12-05T05:38:38.810Z,1019.42
2017-12-05T05:39:19.384Z,1019.42
2017-12-05T05:39:59.948Z,1019.41
2017-12-05T05:40:40.524Z,1019.49
2017-12-05T05:41:21.096Z,1019.44
2017-12-05T05:42:01.657Z,1019.48
2017-12-05T05:42:42.221Z,1019.5
2017-12-05T05:43:22.809Z,1019.45
2017-12-05T05:44:03.400Z,1019.5
2017-12-05T05:44:43.988Z,1019.45
2017-12-05T05:45:24.561Z,1019.49
2017-12-05T05:46:05.113Z,1019.52
2017-12-05T05:46:45.679Z,1019.44
2017-12-05T05:47:26.250Z,1019.46
2017-12-05T05:48:06.816Z,1019.45
2017-12-05T05:48:47.373Z,1019.5
2017-12-05T05:49:27.936Z,1019.46
2017-12-05T05:50:08.518Z,1019.48
2017-12-05T05:50:49.069Z,1019.46
2017-12-05T05:51:29.634Z,1019.5
2017-12-05T05:52:10.199Z,1019.52
2017-12-05T05:52:50.767Z,1019.53
2017-12-05T05:53:31.366Z,1019.51
2017-12-05T05:54:11.928Z,1019.6
2017-12-05T05:54:52.545Z,1019.53
2017-12-05T05:55:33.152Z,1019.59
2017-12-05T05:56:13.732Z,1019.53
2017-12-05T05:56:54.295Z,1019.52
2017-12-05T05:57:34.862Z,1019.59
2017-12-05T05:58:15.600Z,1019.59
2017-12-05T05:58:56.496Z,1019.6
2017-12-05T05:59:37.149Z,1019.63
2017-12-05T06:00:17.993Z,1019.6
2017-12-05T06:00:59.012Z,1019.66
2017-12-05T06:01:40.813Z,1019.65
2017-12-05T06:02:21.951Z,1019.64
2017-12-05T06:03:02.767Z,1019.64
2017-12-05T06:03:43.486Z,1019.68
2017-12-05T06:04:24.297Z,1019.68
2017-12-05T06:05:05.191Z,1019.68
2017-12-05T06:05:46.061Z,1019.7
2017-12-05T06:06:26.776Z,1019.72
2017-12-05T06:07:07.675Z,1019.69
2017-12-05T06:07:48.724Z,1019.68
2017-12-05T06:08:29.565Z,1019.74
2017-12-05T06:09:10.649Z,1019.77
2017-12-05T06:09:51.817Z,1019.75
2017-12-05T06:10:33.325Z,1019.69
2017-12-05T06:11:14.108Z,1019.75
2017-12-05T06:11:54.913Z,1019.78
2017-12-05T06:12:35.750Z,1019.78
2017-12-05T06:13:16.485Z,1019.78
2017-12-05T06:13:57.048Z,1019.8
2017-12-05T06:14:37.709Z,1019.79
2017-12-05T06:15:18.264Z,1019.82
2017-12-05T06:15:58.835Z,1019.79
2017-12-05T06:16:39.411Z,1019.78
2017-12-05T06:17:19.984Z,1019.85
2017-12-05T06:18:00.553Z,1019.89
2017-12-05T06:18:41.120Z,1019.83
2017-12-05T06:19:21.921Z,1019.87
2017-12-05T06:20:02.485Z,1019.9
2017-12-05T06:20:43.052Z,1019.87
2017-12-05T06:21:23.914Z,1019.88
2017-12-05T06:22:04.579Z,1019.9
2017-12-05T06:22:45.160Z,1019.85
2017-12-05T06:23:25.722Z,1019.88
2017-12-05T06:24:06.344Z,1019.9
2017-12-05T06:24:46.917Z,1019.94
2017-12-05T06:25:27.481Z,1019.93
2017-12-05T06:26:08.080Z,1019.96
2017-12-05T06:26:48.630Z,1019.91
2017-12-05T06:27:29.250Z,1019.93
2017-12-05T06:28:09.790Z,1019.87
2017-12-05T06:28:50.351Z,1019.91
2017-12-05T06:29:30.922Z,1019.95
2017-12-05T06:30:11.498Z,1019.92
2017-12-05T06:30:52.059Z,1019.93
2017-12-05T06:31:32.614Z,1019.89
2017-12-05T06:32:13.195Z,1019.95
2017-12-05T06:32:53.759Z,1019.94
2017-12-05T06:33:34.342Z,1019.92
2017-12-05T06:34:14.942Z,1019.96
2017-12-05T06:34:55.505Z,1019.96
2017-12-05T06:35:36.087Z,1019.97
2017-12-05T06:36:16.649Z,1019.99
2017-12-05T06:36:57.253Z,1019.97
2017-12-05T06:37:37.872Z,1019.95
2017-12-05T06:38:18.435Z,1020.03
2017-12-05T06:38:59.028Z,1019.98
2017-12-05T06:39:39.611Z,1019.97
2017-12-05T06:40:20.179Z,1019.99
2017-12-05T06:41:00.757Z,1019.98
2017-12-05T06:41:41.331Z,1019.99
2017-12-05T06:42:22.534Z,1020
2017-12-05T06:43:02.521Z,1019.97
2017-12-05T06:43:43.076Z,1019.99
2017-12-05T06:44:23.661Z,1020
2017-12-05T06:45:04.235Z,1020.02
2017-12-05T06:45:44.794Z,1019.97
2017-12-05T06:46:25.366Z,1020.02
2017-12-05T06:47:05.943Z,1020
2017-12-05T06:47:46.523Z,1020
2017-12-05T06:48:27.125Z,1020.03
2017-12-05T06:49:07.695Z,1020.06
2017-12-05T06:49:48.286Z,1020.04
2017-12-05T06:50:28.921Z,1020.09
2017-12-05T06:51:09.520Z,1020.09
2017-12-05T06:51:50.086Z,1020.02
2017-12-05T06:52:30.651Z,1020.11
2017-12-05T06:53:11.223Z,1020.09
2017-12-05T06:53:51.809Z,1020.14
2017-12-05T06:54:32.394Z,1020.12
2017-12-05T06:55:13.002Z,1020.11
2017-12-05T06:55:53.575Z,1020.09
2017-12-05T06:56:34.174Z,1020.07
2017-12-05T06:57:14.764Z,1020.12
2017-12-05T06:57:55.342Z,1020.06
2017-12-05T06:58:35.943Z,1020.09
2017-12-05T06:59:16.540Z,1020.06
2017-12-05T06:59:57.120Z,1020.07
2017-12-05T07:00:37.689Z,1020.1
2017-12-05T07:01:18.267Z,1020.12
2017-12-05T07:01:58.850Z,1020.14
2017-12-05T07:02:39.538Z,1020.11
2017-12-05T07:03:20.122Z,1020.11
2017-12-05T07:04:00.680Z,1020.17
2017-12-05T07:04:41.284Z,1020.21
2017-12-05T07:05:21.858Z,1020.2
2017-12-05T07:06:02.456Z,1020.22
2017-12-05T07:06:43.000Z,1020.18
2017-12-05T07:07:23.566Z,1020.19
2017-12-05T07:08:04.146Z,1020.14
2017-12-05T07:08:44.715Z,1020.17
2017-12-05T07:09:25.837Z,1020.16
2017-12-05T07:10:06.460Z,1020.2
2017-12-05T07:10:47.041Z,1020.12
2017-12-05T07:11:27.657Z,1020.13
2017-12-05T07:12:08.237Z,1020.19
2017-12-05T07:12:48.792Z,1020.16
2017-12-05T07:13:29.381Z,1020.2
2017-12-05T07:14:10.038Z,1020.17
2017-12-05T07:14:50.613Z,1020.14
2017-12-05T07:15:31.202Z,1020.17
2017-12-05T07:16:11.777Z,1020.14
2017-12-05T07:16:52.368Z,1020.17
2017-12-05T07:17:32.994Z,1020.26
2017-12-05T07:18:13.602Z,1020.17
2017-12-05T07:18:54.208Z,1020.2
2017-12-05T07:19:34.773Z,1020.23
2017-12-05T07:20:15.340Z,1020.25
2017-12-05T07:20:55.949Z,1020.26
2017-12-05T07:21:36.530Z,1020.22
2017-12-05T07:22:17.116Z,1020.27
2017-12-05T07:22:57.706Z,1020.26
2017-12-05T07:23:38.305Z,1020.26
2017-12-05T07:24:18.900Z,1020.3
2017-12-05T07:24:59.485Z,1020.29
2017-12-05T07:25:40.096Z,1020.32
2017-12-05T07:26:20.668Z,1020.3
2017-12-05T07:27:01.234Z,1020.27
2017-12-05T07:27:41.796Z,1020.3
2017-12-05T07:28:22.385Z,1020.25
2017-12-05T07:29:03.008Z,1020.33
2017-12-05T07:29:43.572Z,1020.32
2017-12-05T07:30:24.186Z,1020.29
2017-12-05T07:31:04.777Z,1020.34
2017-12-05T07:31:45.341Z,1020.33
2017-12-05T07:32:25.922Z,1020.36
2017-12-05T07:33:06.505Z,1020.39
2017-12-05T07:33:47.080Z,1020.37
2017-12-05T07:34:27.679Z,1020.42
2017-12-05T07:35:08.248Z,1020.29
2017-12-05T07:35:48.824Z,1020.38
2017-12-05T07:36:29.427Z,1020.4
2017-12-05T07:37:09.986Z,1020.4
2017-12-05T07:37:50.577Z,1020.27
2017-12-05T07:38:31.157Z,1020.37
2017-12-05T07:39:11.743Z,1020.38
2017-12-05T07:39:52.344Z,1020.45
2017-12-05T07:40:33.543Z,1020.39
2017-12-05T07:41:13.535Z,1020.43
2017-12-05T07:41:54.182Z,1020.44
2017-12-05T07:42:34.764Z,1020.4
2017-12-05T07:43:15.325Z,1020.49
2017-12-05T07:43:55.900Z,1020.4
2017-12-05T07:44:36.485Z,1020.46
2017-12-05T07:45:17.086Z,1020.52
2017-12-05T07:45:57.653Z,1020.44
2017-12-05T07:46:38.232Z,1020.46
2017-12-05T07:47:18.798Z,1020.56
2017-12-05T07:47:59.383Z,1020.49
2017-12-05T07:48:39.994Z,1020.45
2017-12-05T07:49:20.904Z,1020.47
2017-12-05T07:50:01.677Z,1020.48
2017-12-05T07:50:42.275Z,1020.48
2017-12-05T07:51:22.860Z,1020.52
2017-12-05T07:52:03.430Z,1020.48
2017-12-05T07:52:44.071Z,1020.49
2017-12-05T07:53:24.649Z,1020.48
2017-12-05T07:54:05.225Z,1020.53
2017-12-05T07:54:45.788Z,1020.54
2017-12-05T07:55:26.380Z,1020.54
2017-12-05T07:56:06.946Z,1020.55
2017-12-05T07:56:47.496Z,1020.49
2017-12-05T07:57:28.101Z,1020.57
2017-12-05T07:58:09.398Z,1020.56
2017-12-05T07:58:50.009Z,1020.58
2017-12-05T07:59:30.631Z,1020.57
2017-12-05T08:00:11.229Z,1020.59
2017-12-05T08:00:51.788Z,1020.6
2017-12-05T08:01:32.390Z,1020.63
2017-12-05T08:02:12.966Z,1020.59
2017-12-05T08:02:53.528Z,1020.61
2017-12-05T08:03:34.343Z,1020.62
2017-12-05T08:04:14.941Z,1020.61
2017-12-05T08:04:55.586Z,1020.64
2017-12-05T08:05:36.710Z,1020.59
2017-12-05T08:06:17.281Z,1020.65
2017-12-05T08:06:57.848Z,1020.68
2017-12-05T08:07:38.433Z,1020.56
2017-12-05T08:08:19.022Z,1020.62
2017-12-05T08:08:59.592Z,1020.7
2017-12-05T08:09:40.225Z,1020.67
2017-12-05T08:10:20.795Z,1020.68
2017-12-05T08:11:01.384Z,1020.7
2017-12-05T08:11:44.210Z,1020.69
2017-12-05T08:12:24.753Z,1020.69
2017-12-05T08:13:05.323Z,1020.66